createdAt,value
2023-04-21T00:00:14.039Z,18.73
2023-04-21T00:02:41.442Z,18.38
2023-04-21T00:05:12.801Z,18.70
2023-04-21T00:07:40.474Z,19.10
2023-04-21T00:10:08.851Z,19.40
2023-04-21T00:12:35.644Z,18.65
2023-04-21T00:15:05.931Z,19.38
2023-04-21T00:17:32.605Z,19.58
2023-04-21T00:19:59.719Z,19.50
2023-04-21T00:22:26.376Z,20.15
2023-04-21T00:24:53.046Z,19.95
2023-04-21T00:27:22.167Z,19.95
2023-04-21T00:29:48.825Z,19.95
2023-04-21T00:32:16.215Z,21.15
2023-04-21T00:34:43.004Z,20.80
2023-04-21T00:37:09.648Z,19.75
2023-04-21T00:39:38.564Z,21.17
2023-04-21T00:42:05.302Z,20.77
2023-04-21T00:44:34.344Z,19.85
2023-04-21T00:47:03.533Z,20.88
2023-04-21T00:49:30.443Z,19.90
2023-04-21T00:51:57.965Z,21.05
2023-04-21T00:54:27.704Z,21.13
2023-04-21T00:56:55.277Z,19.67
2023-04-21T00:59:22.037Z,19.88
2023-04-21T01:01:48.960Z,20.50
2023-04-21T01:04:16.013Z,20.55
2023-04-21T01:06:43.524Z,22.10
2023-04-21T01:09:13.342Z,20.70
2023-04-21T01:11:40.244Z,20.27
2023-04-21T01:14:09.930Z,19.80
2023-04-21T01:16:37.460Z,21.02
2023-04-21T01:19:06.504Z,21.58
2023-04-21T01:21:40.623Z,22.02
2023-04-21T01:24:07.550Z,21.33
2023-04-21T01:26:34.176Z,21.02
2023-04-21T01:29:03.336Z,20.80
2023-04-21T01:31:30.152Z,21.88
2023-04-21T01:33:56.925Z,21.88
2023-04-21T01:36:23.637Z,22.27
2023-04-21T01:38:52.426Z,23.08
2023-04-21T01:41:19.130Z,22.25
2023-04-21T01:43:45.892Z,22.50
2023-04-21T01:46:12.573Z,22.67
2023-04-21T01:48:39.300Z,22.80
2023-04-21T01:51:06.016Z,22.80
2023-04-21T01:53:32.940Z,23.50
2023-04-21T01:55:59.724Z,22.52
2023-04-21T01:58:26.348Z,23.13
2023-04-21T02:00:53.066Z,22.17
2023-04-21T02:03:19.943Z,23.30
2023-04-21T02:05:50.643Z,23.15
2023-04-21T02:08:17.789Z,23.38
2023-04-21T02:10:46.884Z,23.65
2023-04-21T02:13:15.725Z,25.13
2023-04-21T02:15:44.673Z,23.88
2023-04-21T02:18:14.922Z,23.75
2023-04-21T02:20:44.038Z,23.60
2023-04-21T02:23:10.890Z,23.38
2023-04-21T02:25:37.621Z,22.67
2023-04-21T02:28:04.489Z,23.85
2023-04-21T02:30:34.359Z,22.27
2023-04-21T02:33:03.563Z,22.08
2023-04-21T02:35:31.077Z,22.23
2023-04-21T02:37:57.702Z,23.10
2023-04-21T02:40:24.602Z,21.88
2023-04-21T02:42:51.297Z,22.98
2023-04-21T02:45:17.991Z,22.45
2023-04-21T02:47:44.644Z,22.60
2023-04-21T02:50:16.460Z,22.27
2023-04-21T02:52:43.088Z,23.27
2023-04-21T02:55:09.836Z,23.35
2023-04-21T02:57:36.534Z,23.88
2023-04-21T03:00:04.844Z,22.25
2023-04-21T03:02:31.714Z,23.92
2023-04-21T03:05:00.611Z,22.85
2023-04-21T03:07:27.330Z,24.02
2023-04-21T03:09:53.955Z,24.05
2023-04-21T03:12:20.844Z,22.90
2023-04-21T03:14:47.794Z,25.17
2023-04-21T03:17:16.767Z,23.45
2023-04-21T03:19:45.815Z,24.25
2023-04-21T03:22:12.437Z,24.25
2023-04-21T03:24:41.300Z,26.10
2023-04-21T03:27:09.856Z,26.40
2023-04-21T03:29:37.618Z,25.48
2023-04-21T03:32:06.652Z,26.15
2023-04-21T03:34:33.297Z,26.83
2023-04-21T03:36:59.896Z,26.60
2023-04-21T03:39:26.749Z,25.90
2023-04-21T03:41:55.783Z,27.15
2023-04-21T03:44:24.893Z,27.20
2023-04-21T03:46:53.979Z,26.42
2023-04-21T03:49:21.328Z,26.48
2023-04-21T03:51:48.271Z,27.95
2023-04-21T03:54:15.197Z,27.30
2023-04-21T03:56:41.930Z,27.13
2023-04-21T03:59:08.571Z,29.30
2023-04-21T04:01:35.469Z,27.73
2023-04-21T04:04:02.450Z,27.40
2023-04-21T04:06:29.429Z,27.80
2023-04-21T04:08:56.118Z,26.73
2023-04-21T04:11:22.781Z,26.05
2023-04-21T04:13:51.633Z,26.90
2023-04-21T04:16:20.597Z,25.15
2023-04-21T04:18:47.252Z,26.05
2023-04-21T04:21:16.878Z,26.88
2023-04-21T04:23:44.361Z,25.05
2023-04-21T04:26:11.337Z,25.33
2023-04-21T04:28:41.198Z,26.27
2023-04-21T04:31:07.935Z,24.88
2023-04-21T04:33:34.601Z,25.15
2023-04-21T04:36:04.062Z,25.77
2023-04-21T04:38:30.697Z,24.70
2023-04-21T04:41:02.126Z,25.10
2023-04-21T04:43:29.380Z,23.55
2023-04-21T04:45:55.991Z,24.10
2023-04-21T04:48:25.395Z,23.05
2023-04-21T04:50:54.690Z,22.10
2023-04-21T04:53:21.351Z,22.95
2023-04-21T04:55:48.218Z,21.05
2023-04-21T04:58:15.482Z,21.48
2023-04-21T05:00:42.226Z,22.60
2023-04-21T05:03:09.180Z,19.73
2023-04-21T05:05:35.907Z,20.55
2023-04-21T05:08:02.618Z,20.13
2023-04-21T05:10:31.643Z,21.17
2023-04-21T05:12:58.309Z,19.20
2023-04-21T05:15:25.056Z,19.38
2023-04-21T05:17:51.750Z,20.88
2023-04-21T05:20:18.493Z,19.80
2023-04-21T05:22:45.287Z,20.00
2023-04-21T05:25:15.605Z,19.15
2023-04-21T05:27:43.074Z,19.05
2023-04-21T05:30:10.499Z,19.73
2023-04-21T05:32:37.701Z,19.75
2023-04-21T05:35:07.669Z,19.98
2023-04-21T05:37:34.354Z,18.85
2023-04-21T05:40:01.117Z,19.63
2023-04-21T05:42:27.814Z,20.02
2023-04-21T05:44:55.216Z,19.13
2023-04-21T05:47:21.908Z,18.58
2023-04-21T05:49:53.423Z,17.73
2023-04-21T05:52:21.752Z,17.30
2023-04-21T05:54:48.622Z,16.08
2023-04-21T05:57:18.090Z,16.08
2023-04-21T05:59:44.855Z,15.63
2023-04-21T06:02:12.153Z,15.88
2023-04-21T06:04:39.133Z,16.25
2023-04-21T06:07:10.432Z,14.20
2023-04-21T06:09:40.227Z,15.70
2023-04-21T06:12:09.446Z,15.00
2023-04-21T06:14:38.305Z,17.27
2023-04-21T06:17:05.162Z,16.15
2023-04-21T06:19:38.187Z,16.13
2023-04-21T06:22:04.855Z,16.50
2023-04-21T06:24:34.635Z,17.20
2023-04-21T06:27:01.778Z,16.50
2023-04-21T06:29:28.440Z,17.55
2023-04-21T06:31:55.154Z,18.42
2023-04-21T06:34:22.102Z,18.58
2023-04-21T06:36:48.999Z,21.10
2023-04-21T06:39:15.644Z,20.90
2023-04-21T06:41:42.347Z,21.08
2023-04-21T06:44:13.846Z,22.05
2023-04-21T06:46:41.499Z,21.52
2023-04-21T06:49:11.820Z,22.88
2023-04-21T06:51:41.155Z,24.13
2023-04-21T06:54:12.592Z,22.95
2023-04-21T06:56:39.278Z,23.10
2023-04-21T06:59:06.267Z,23.17
2023-04-21T07:01:33.202Z,24.05
2023-04-21T07:04:02.775Z,21.92
2023-04-21T07:06:29.504Z,22.20
2023-04-21T07:08:56.304Z,23.65
2023-04-21T07:11:23.373Z,24.17
2023-04-21T07:13:50.058Z,23.30
2023-04-21T07:16:19.005Z,24.65
2023-04-21T07:18:45.805Z,22.73
2023-04-21T07:21:12.818Z,23.55
2023-04-21T07:23:39.538Z,23.50
2023-04-21T07:26:06.289Z,23.27
2023-04-21T07:28:33.106Z,22.75
2023-04-21T07:31:01.550Z,23.35
2023-04-21T07:33:29.717Z,23.10
2023-04-21T07:35:56.461Z,22.05
2023-04-21T07:38:25.608Z,23.25
2023-04-21T07:40:52.357Z,22.45
2023-04-21T07:43:19.893Z,22.50
2023-04-21T07:45:46.713Z,21.80
2023-04-21T07:48:13.465Z,20.92
2023-04-21T07:50:41.353Z,19.55
2023-04-21T07:53:08.024Z,19.60
2023-04-21T07:55:37.108Z,19.92
2023-04-21T07:58:10.496Z,19.95
2023-04-21T08:00:39.486Z,21.95
2023-04-21T08:03:09.008Z,20.08
2023-04-21T08:05:40.133Z,18.10
2023-04-21T08:08:10.493Z,18.10
2023-04-21T08:10:48.480Z,19.17
2023-04-21T08:13:15.782Z,20.33
2023-04-21T08:15:42.567Z,18.50
2023-04-21T08:18:09.623Z,18.17
2023-04-21T08:20:36.475Z,18.80
2023-04-21T08:23:03.491Z,15.82
2023-04-21T08:25:31.026Z,15.50
2023-04-21T08:28:00.172Z,16.40
2023-04-21T08:30:29.669Z,15.27
2023-04-21T08:32:56.338Z,14.63
2023-04-21T08:35:23.258Z,13.57
2023-04-21T08:37:51.585Z,14.60
2023-04-21T08:40:19.714Z,14.98
2023-04-21T08:42:47.026Z,14.45
2023-04-21T08:45:13.695Z,13.90
2023-04-21T08:47:42.198Z,13.77
2023-04-21T08:50:13.748Z,13.77
2023-04-21T08:52:40.555Z,12.70
2023-04-21T08:55:07.799Z,14.23
2023-04-21T08:57:34.534Z,14.68
2023-04-21T09:00:06.485Z,13.75
2023-04-21T09:02:59.571Z,13.88
2023-04-21T09:05:32.966Z,13.20
2023-04-21T09:08:11.598Z,13.20
2023-04-21T09:10:53.322Z,13.45
2023-04-21T09:13:30.118Z,12.52
2023-04-21T09:15:56.987Z,12.70
2023-04-21T09:18:35.122Z,13.52
2023-04-21T09:21:13.973Z,15.55
2023-04-21T09:23:52.666Z,14.40
2023-04-21T09:26:23.095Z,14.75
2023-04-21T09:28:52.249Z,12.85
2023-04-21T09:31:20.097Z,13.05
2023-04-21T09:36:24.264Z,12.50
2023-04-21T09:39:24.326Z,13.05
2023-04-21T09:41:48.435Z,12.13
2023-04-21T09:44:18.186Z,13.35
2023-04-21T09:46:50.004Z,13.15
2023-04-21T09:49:18.421Z,13.50
2023-04-21T09:54:29.621Z,12.82
2023-04-21T09:56:59.272Z,12.80
2023-04-21T09:59:29.327Z,12.48
2023-04-21T10:02:01.363Z,13.23
2023-04-21T10:04:31.974Z,13.23
2023-04-21T10:07:00.760Z,12.02
2023-04-21T10:09:37.037Z,11.80
2023-04-21T10:12:09.190Z,13.07
2023-04-21T10:14:36.932Z,12.30
2023-04-21T10:17:06.388Z,11.70
2023-04-21T10:19:39.943Z,11.43
2023-04-21T10:22:09.220Z,11.30
2023-04-21T10:24:41.273Z,10.57
2023-04-21T10:27:11.674Z,11.20
2023-04-21T10:29:55.406Z,12.48
2023-04-21T10:32:42.802Z,12.20
2023-04-21T10:35:15.430Z,11.95
2023-04-21T10:37:42.642Z,11.40
2023-04-21T10:40:43.921Z,11.57
2023-04-21T10:43:49.845Z,12.13
2023-04-21T10:46:40.343Z,10.50
2023-04-21T10:49:21.294Z,12.93
2023-04-21T10:52:04.028Z,12.35
2023-04-21T10:54:52.539Z,11.85
2023-04-21T10:57:23.123Z,11.00
2023-04-21T10:59:49.912Z,10.90
2023-04-21T11:02:18.650Z,11.15
2023-04-21T11:04:48.679Z,11.57
2023-04-21T11:07:26.191Z,11.35
2023-04-21T11:10:01.421Z,10.90
2023-04-21T11:12:30.337Z,9.05
2023-04-21T11:14:57.518Z,10.57
2023-04-21T11:17:25.119Z,10.20
2023-04-21T11:19:56.479Z,9.65
2023-04-21T11:22:28.010Z,9.50
2023-04-21T11:24:56.735Z,10.82
2023-04-21T11:27:26.105Z,10.32
2023-04-21T11:29:55.664Z,9.98
2023-04-21T11:32:24.888Z,11.50
2023-04-21T11:34:51.745Z,10.85
2023-04-21T11:37:29.985Z,10.40
2023-04-21T11:39:58.442Z,10.50
2023-04-21T11:42:27.650Z,10.13
2023-04-21T11:44:56.395Z,11.05
2023-04-21T11:47:25.514Z,10.30
2023-04-21T11:49:59.581Z,10.40
2023-04-21T11:52:28.499Z,10.50
2023-04-21T11:55:00.209Z,10.60
2023-04-21T11:57:28.867Z,9.73
2023-04-21T11:59:59.284Z,10.10
2023-04-21T12:02:30.979Z,9.75
2023-04-21T12:05:07.884Z,9.32
2023-04-21T12:07:43.173Z,8.32
2023-04-21T12:10:14.146Z,6.88
2023-04-21T12:12:42.012Z,6.95
2023-04-21T12:15:10.580Z,6.28
2023-04-21T12:17:48.652Z,6.55
2023-04-21T12:20:19.685Z,6.32
2023-04-21T12:22:49.440Z,6.05
2023-04-21T12:25:16.277Z,6.05
2023-04-21T12:27:49.636Z,6.60
2023-04-21T12:30:17.128Z,6.47
2023-04-21T12:32:43.871Z,6.70
2023-04-21T12:35:13.373Z,7.00
2023-04-21T12:37:40.464Z,7.18
2023-04-21T12:40:08.188Z,7.68
2023-04-21T12:42:37.509Z,7.80
2023-04-21T12:45:05.967Z,7.78
2023-04-21T12:47:32.848Z,7.65
2023-04-21T12:50:01.893Z,7.60
2023-04-21T12:52:30.779Z,8.00
2023-04-21T12:54:57.566Z,8.52
2023-04-21T12:57:24.298Z,8.35
2023-04-21T12:59:51.106Z,8.73
2023-04-21T13:02:17.920Z,8.60
2023-04-21T13:04:44.808Z,6.90
2023-04-21T13:07:11.738Z,5.18
2023-04-21T13:09:38.743Z,5.40
2023-04-21T13:12:08.055Z,5.60
2023-04-21T13:14:34.881Z,5.35
2023-04-21T13:17:01.781Z,4.68
2023-04-21T13:19:31.337Z,4.03
2023-04-21T13:21:58.267Z,8.82
2023-04-21T13:24:26.744Z,8.38
2023-04-21T13:26:53.579Z,7.07
2023-04-21T13:29:22.809Z,6.28
2023-04-21T13:31:49.690Z,6.70
2023-04-21T13:34:16.499Z,6.28
2023-04-21T13:36:43.330Z,6.07
2023-04-21T13:39:12.545Z,7.00
2023-04-21T13:41:39.333Z,5.07
2023-04-21T13:44:08.656Z,5.32
2023-04-21T13:46:35.610Z,6.63
2023-04-21T13:49:02.439Z,6.03
2023-04-21T13:51:30.232Z,7.07
2023-04-21T13:53:57.116Z,6.28
2023-04-21T13:56:26.250Z,6.05
2023-04-21T13:58:53.245Z,6.20
2023-04-21T14:01:24.326Z,6.47
2023-04-21T14:03:51.377Z,7.85
2023-04-21T14:06:18.423Z,7.88
2023-04-21T14:08:45.324Z,8.18
2023-04-21T14:11:12.215Z,6.82
2023-04-21T14:13:47.846Z,6.55
2023-04-21T14:16:27.965Z,7.65
2023-04-21T14:18:54.820Z,7.32
2023-04-21T14:21:23.740Z,7.00
2023-04-21T14:23:50.558Z,6.50
2023-04-21T14:26:20.245Z,5.97
2023-04-21T14:28:47.007Z,6.32
2023-04-21T14:31:13.813Z,6.28
2023-04-21T14:33:41.372Z,6.68
2023-04-21T14:36:10.405Z,7.10
2023-04-21T14:38:39.673Z,6.85
2023-04-21T14:41:11.340Z,5.85
2023-04-21T14:43:38.324Z,6.88
2023-04-21T14:46:05.256Z,6.93
2023-04-21T14:48:32.507Z,5.97
2023-04-21T14:50:59.344Z,6.47
2023-04-21T14:53:26.140Z,7.25
2023-04-21T14:55:54.279Z,6.32
2023-04-21T14:58:21.461Z,6.63
2023-04-21T15:00:48.651Z,6.93
2023-04-21T15:03:16.222Z,6.55
2023-04-21T15:05:43.560Z,8.25
2023-04-21T15:08:11.779Z,7.00
2023-04-21T15:10:40.785Z,7.85
2023-04-21T15:13:10.698Z,6.78
2023-04-21T15:15:40.147Z,6.70
2023-04-21T15:18:09.783Z,6.40
2023-04-21T15:20:43.920Z,7.20
2023-04-21T15:23:12.531Z,7.72
2023-04-21T15:25:40.478Z,7.78
2023-04-21T15:28:10.014Z,6.57
2023-04-21T15:30:37.341Z,6.88
2023-04-21T15:33:04.772Z,7.35
2023-04-21T15:35:32.119Z,7.22
2023-04-21T15:37:58.820Z,6.95
2023-04-21T15:40:25.682Z,6.75
2023-04-21T15:42:52.487Z,7.70
2023-04-21T15:45:19.255Z,2.83
2023-04-21T15:47:46.112Z,2.40
2023-04-21T15:50:13.124Z,1.95
2023-04-21T15:52:43.195Z,2.13
2023-04-21T15:55:13.570Z,1.80
2023-04-21T15:57:40.438Z,2.17
2023-04-21T16:00:10.328Z,2.30
2023-04-21T16:02:40.637Z,1.80
2023-04-21T16:05:08.134Z,1.58
2023-04-21T16:07:35.339Z,1.92
2023-04-21T16:10:02.215Z,1.73
2023-04-21T16:12:29.051Z,1.45
2023-04-21T16:15:01.634Z,1.55
2023-04-21T16:17:34.177Z,1.60
2023-04-21T16:20:01.118Z,1.55
2023-04-21T16:22:30.031Z,1.30
2023-04-21T16:24:58.586Z,1.20
2023-04-21T16:27:27.789Z,1.20
2023-04-21T16:29:54.642Z,1.40
2023-04-21T16:32:21.725Z,2.25
2023-04-21T16:34:50.860Z,2.40
2023-04-21T16:37:20.165Z,2.03
2023-04-21T16:39:47.142Z,2.13
2023-04-21T16:42:14.413Z,2.35
2023-04-21T16:44:41.688Z,1.80
2023-04-21T16:47:08.932Z,1.77
2023-04-21T16:49:36.169Z,1.80
2023-04-21T16:52:03.160Z,1.73
2023-04-21T16:54:29.870Z,1.60
2023-04-21T16:56:57.716Z,1.65
2023-04-21T16:59:24.537Z,1.75
2023-04-21T17:01:53.578Z,1.33
2023-04-21T17:04:20.515Z,2.30
2023-04-21T17:06:49.472Z,4.07
2023-04-21T17:09:18.878Z,6.07
2023-04-21T17:11:46.092Z,2.40
2023-04-21T17:14:13.278Z,2.00
2023-04-21T17:16:40.498Z,12.77
2023-04-21T17:19:07.443Z,2.65
2023-04-21T17:21:34.466Z,2.30
2023-04-21T17:24:03.865Z,2.00
2023-04-21T17:26:31.247Z,2.10
2023-04-21T17:28:58.238Z,1.98
2023-04-21T17:31:29.587Z,2.33
2023-04-21T17:33:57.441Z,2.08
2023-04-21T17:36:25.786Z,2.20
2023-04-21T17:38:52.829Z,2.83
2023-04-21T17:41:22.699Z,3.22
2023-04-21T17:43:49.688Z,3.05
2023-04-21T17:46:19.223Z,3.20
2023-04-21T17:48:46.232Z,2.38
2023-04-21T17:51:14.745Z,2.90
2023-04-21T17:53:44.719Z,2.80
2023-04-21T17:56:12.977Z,2.35
2023-04-21T17:58:41.462Z,2.72
2023-04-21T18:01:08.975Z,3.25
2023-04-21T18:03:36.373Z,2.90
2023-04-21T18:06:06.130Z,2.40
2023-04-21T18:08:35.355Z,3.10
2023-04-21T18:11:02.227Z,2.97
2023-04-21T18:13:29.070Z,3.00
2023-04-21T18:15:55.982Z,2.83
2023-04-21T18:18:22.860Z,3.13
2023-04-21T18:20:49.694Z,3.60
2023-04-21T18:23:16.651Z,3.53
2023-04-21T18:25:43.522Z,3.08
2023-04-21T18:28:13.660Z,2.97
2023-04-21T18:30:41.147Z,5.13
2023-04-21T18:33:09.339Z,3.10
2023-04-21T18:35:36.177Z,4.05
2023-04-21T18:38:03.177Z,3.70
2023-04-21T18:40:33.239Z,3.95
2023-04-21T18:43:00.433Z,4.05
2023-04-21T18:45:27.904Z,3.42
2023-04-21T18:47:55.151Z,3.65
2023-04-21T18:50:22.023Z,4.00
2023-04-21T18:52:49.208Z,3.95
2023-04-21T18:55:18.694Z,4.03
2023-04-21T18:57:45.577Z,4.10
2023-04-21T19:00:13.542Z,4.38
2023-04-21T19:02:43.272Z,4.70
2023-04-21T19:05:10.643Z,5.32
2023-04-21T19:07:39.604Z,5.80
2023-04-21T19:10:07.515Z,4.03
2023-04-21T19:12:36.919Z,3.88
2023-04-21T19:15:04.537Z,4.57
2023-04-21T19:17:34.401Z,4.15
2023-04-21T19:20:01.642Z,4.22
2023-04-21T19:22:32.098Z,5.60
2023-04-21T19:24:59.359Z,5.80
2023-04-21T19:27:26.325Z,5.28
2023-04-21T19:29:55.479Z,5.78
2023-04-21T19:32:22.513Z,5.93
2023-04-21T19:34:51.715Z,5.90
2023-04-21T19:37:21.369Z,5.40
2023-04-21T19:39:48.665Z,5.30
2023-04-21T19:42:15.487Z,5.15
2023-04-21T19:44:44.558Z,5.57
2023-04-21T19:47:13.731Z,5.60
2023-04-21T19:49:45.410Z,5.10
2023-04-21T19:52:12.331Z,5.57
2023-04-21T19:54:43.667Z,6.20
2023-04-21T19:57:10.521Z,5.93
2023-04-21T19:59:40.118Z,6.05
2023-04-21T20:02:07.793Z,5.57
2023-04-21T20:04:37.725Z,5.75
2023-04-21T20:07:05.026Z,6.45
2023-04-21T20:09:31.745Z,6.63
2023-04-21T20:11:58.465Z,6.95
2023-04-21T20:14:25.203Z,7.45
2023-04-21T20:16:51.945Z,6.68
2023-04-21T20:19:18.771Z,6.50
2023-04-21T20:21:45.592Z,6.03
2023-04-21T20:24:12.284Z,5.60
2023-04-21T20:26:39.014Z,6.20
2023-04-21T20:29:05.694Z,5.35
2023-04-21T20:31:32.827Z,5.30
2023-04-21T20:34:01.900Z,5.05
2023-04-21T20:36:31.019Z,5.07
2023-04-21T20:38:58.487Z,5.60
2023-04-21T20:41:25.229Z,5.53
2023-04-21T20:43:56.266Z,5.50
2023-04-21T20:46:23.620Z,5.38
2023-04-21T20:48:50.595Z,4.75
2023-04-21T20:51:20.202Z,4.32
2023-04-21T20:53:46.913Z,4.38
2023-04-21T20:56:13.593Z,4.63
2023-04-21T20:58:40.383Z,4.93
2023-04-21T21:01:07.118Z,4.53
2023-04-21T21:03:34.052Z,5.32
2023-04-21T21:06:00.922Z,5.95
2023-04-21T21:08:28.571Z,4.35
2023-04-21T21:10:57.510Z,4.82
2023-04-21T21:13:24.178Z,5.80
2023-04-21T21:15:50.917Z,6.13
2023-04-21T21:18:17.733Z,6.75
2023-04-21T21:20:44.476Z,6.15
2023-04-21T21:23:11.685Z,7.28
2023-04-21T21:25:38.572Z,6.45
2023-04-21T21:28:05.928Z,6.68
2023-04-21T21:30:32.634Z,6.15
2023-04-21T21:32:59.330Z,5.07
2023-04-21T21:35:30.933Z,7.35
2023-04-21T21:37:57.641Z,7.80
2023-04-21T21:40:24.423Z,8.25
2023-04-21T21:42:51.530Z,7.95
2023-04-21T21:45:18.286Z,7.78
2023-04-21T21:47:45.947Z,7.80
2023-04-21T21:50:13.382Z,7.45
2023-04-21T21:52:40.565Z,7.57
2023-04-21T21:55:08.047Z,7.28
2023-04-21T21:57:35.065Z,7.80
2023-04-21T22:00:02.170Z,7.18
2023-04-21T22:02:31.112Z,5.90
2023-04-21T22:04:58.332Z,6.00
2023-04-21T22:07:25.092Z,5.68
2023-04-21T22:09:52.234Z,5.00
2023-04-21T22:12:18.897Z,4.78
2023-04-21T22:14:46.615Z,4.63
2023-04-21T22:17:14.348Z,5.13
2023-04-21T22:19:41.674Z,5.75
2023-04-21T22:22:10.911Z,5.38
2023-04-21T22:24:38.085Z,4.75
2023-04-21T22:27:09.471Z,4.95
2023-04-21T22:29:36.503Z,4.63
2023-04-21T22:32:03.889Z,5.03
2023-04-21T22:34:32.945Z,5.22
2023-04-21T22:36:59.645Z,5.47
2023-04-21T22:39:28.778Z,5.38
2023-04-21T22:41:55.619Z,4.93
2023-04-21T22:44:22.254Z,4.80
2023-04-21T22:46:49.566Z,4.65
2023-04-21T22:49:17.276Z,4.82
2023-04-21T22:51:44.489Z,5.28
2023-04-21T22:54:11.268Z,5.10
2023-04-21T22:56:37.942Z,4.47
2023-04-21T22:59:04.700Z,4.82
2023-04-21T23:01:34.446Z,4.53
2023-04-21T23:04:03.560Z,4.68
2023-04-21T23:06:31.941Z,4.43
2023-04-21T23:08:58.627Z,4.47
2023-04-21T23:11:25.349Z,4.97
2023-04-21T23:13:52.008Z,3.78
2023-04-21T23:16:18.667Z,4.38
2023-04-21T23:18:45.688Z,3.80
2023-04-21T23:21:12.330Z,4.00
2023-04-21T23:23:38.977Z,4.10
2023-04-21T23:26:08.334Z,3.97
2023-04-21T23:28:34.965Z,3.50
2023-04-21T23:31:01.697Z,3.95
2023-04-21T23:33:30.947Z,4.40
2023-04-21T23:35:57.689Z,4.07
2023-04-21T23:38:24.389Z,4.35
2023-04-21T23:40:51.111Z,4.07
2023-04-21T23:43:17.894Z,4.25
2023-04-21T23:45:44.607Z,4.78
2023-04-21T23:48:11.648Z,3.55
2023-04-21T23:50:38.479Z,3.97
2023-04-21T23:53:05.294Z,3.78
2023-04-21T23:55:31.940Z,3.72
2023-04-21T23:57:58.633Z,3.05
